sensor_id;sensor_type;location;lat;lon;timestamp;P1;durP1;ratioP1;P2;durP2;ratioP2
26989;SDS011;14537;47.788;11.858;2023-02-13T00:00:06;34.03;;;10.20;;
26989;SDS011;14537;47.788;11.858;2023-02-13T00:02:34;27.67;;;11.30;;
26989;SDS011;14537;47.788;11.858;2023-02-13T00:04:59;30.92;;;11.27;;
26989;SDS011;14537;47.788;11.858;2023-02-13T00:07:25;29.10;;;11.07;;
26989;SDS011;14537;47.788;11.858;2023-02-13T00:09:51;28.00;;;10.35;;
26989;SDS011;14537;47.788;11.858;2023-02-13T00:12:16;28.60;;;10.63;;
26989;SDS011;14537;47.788;11.858;2023-02-13T00:14:42;27.67;;;9.52;;
26989;SDS011;14537;47.788;11.858;2023-02-13T00:17:07;23.38;;;9.45;;
26989;SDS011;14537;47.788;11.858;2023-02-13T00:19:33;28.48;;;9.88;;
26989;SDS011;14537;47.788;11.858;2023-02-13T00:21:58;27.15;;;10.02;;
26989;SDS011;14537;47.788;11.858;2023-02-13T00:24:24;27.02;;;10.60;;
26989;SDS011;14537;47.788;11.858;2023-02-13T00:26:50;23.58;;;9.68;;
26989;SDS011;14537;47.788;11.858;2023-02-13T00:29:15;26.50;;;9.73;;
26989;SDS011;14537;47.788;11.858;2023-02-13T00:31:41;34.63;;;10.52;;
26989;SDS011;14537;47.788;11.858;2023-02-13T00:34:07;25.45;;;9.32;;
26989;SDS011;14537;47.788;11.858;2023-02-13T00:36:32;22.02;;;8.85;;
26989;SDS011;14537;47.788;11.858;2023-02-13T00:38:58;27.42;;;10.27;;
26989;SDS011;14537;47.788;11.858;2023-02-13T00:41:23;23.98;;;9.20;;
26989;SDS011;14537;47.788;11.858;2023-02-13T00:43:49;22.17;;;9.30;;
26989;SDS011;14537;47.788;11.858;2023-02-13T00:46:15;24.65;;;9.65;;
26989;SDS011;14537;47.788;11.858;2023-02-13T00:48:41;26.30;;;9.85;;
26989;SDS011;14537;47.788;11.858;2023-02-13T00:51:07;22.52;;;8.70;;
26989;SDS011;14537;47.788;11.858;2023-02-13T00:53:34;27.45;;;9.68;;
26989;SDS011;14537;47.788;11.858;2023-02-13T00:56:00;20.92;;;8.70;;
26989;SDS011;14537;47.788;11.858;2023-02-13T00:58:27;24.15;;;9.25;;
26989;SDS011;14537;47.788;11.858;2023-02-13T01:00:53;20.65;;;8.27;;
26989;SDS011;14537;47.788;11.858;2023-02-13T01:03:19;19.00;;;8.25;;
26989;SDS011;14537;47.788;11.858;2023-02-13T01:05:46;20.85;;;9.13;;
26989;SDS011;14537;47.788;11.858;2023-02-13T01:08:12;19.08;;;7.47;;
26989;SDS011;14537;47.788;11.858;2023-02-13T01:10:39;21.88;;;8.60;;
26989;SDS011;14537;47.788;11.858;2023-02-13T01:13:05;20.83;;;8.93;;
26989;SDS011;14537;47.788;11.858;2023-02-13T01:15:32;22.40;;;9.00;;
26989;SDS011;14537;47.788;11.858;2023-02-13T01:17:58;25.90;;;8.77;;
26989;SDS011;14537;47.788;11.858;2023-02-13T01:20:25;25.60;;;8.48;;
26989;SDS011;14537;47.788;11.858;2023-02-13T01:22:52;19.45;;;8.30;;
26989;SDS011;14537;47.788;11.858;2023-02-13T01:25:18;17.02;;;7.82;;
26989;SDS011;14537;47.788;11.858;2023-02-13T01:27:44;24.50;;;9.63;;
26989;SDS011;14537;47.788;11.858;2023-02-13T01:30:10;25.88;;;9.30;;
26989;SDS011;14537;47.788;11.858;2023-02-13T01:32:40;17.77;;;7.70;;
26989;SDS011;14537;47.788;11.858;2023-02-13T01:35:08;28.67;;;9.55;;
26989;SDS011;14537;47.788;11.858;2023-02-13T01:37:34;25.48;;;8.98;;
26989;SDS011;14537;47.788;11.858;2023-02-13T01:40:00;24.00;;;9.98;;
26989;SDS011;14537;47.788;11.858;2023-02-13T01:42:27;19.73;;;8.38;;
26989;SDS011;14537;47.788;11.858;2023-02-13T01:44:59;22.92;;;9.35;;
26989;SDS011;14537;47.788;11.858;2023-02-13T01:47:59;23.65;;;8.43;;
26989;SDS011;14537;47.788;11.858;2023-02-13T01:50:47;25.02;;;8.93;;
26989;SDS011;14537;47.788;11.858;2023-02-13T01:53:18;20.05;;;8.25;;
26989;SDS011;14537;47.788;11.858;2023-02-13T01:56:10;22.30;;;8.63;;
26989;SDS011;14537;47.788;11.858;2023-02-13T01:58:44;25.88;;;8.52;;
26989;SDS011;14537;47.788;11.858;2023-02-13T02:01:12;25.20;;;9.30;;
26989;SDS011;14537;47.788;11.858;2023-02-13T02:06:06;19.52;;;8.55;;
26989;SDS011;14537;47.788;11.858;2023-02-13T02:08:38;20.15;;;8.40;;
26989;SDS011;14537;47.788;11.858;2023-02-13T02:11:14;22.02;;;8.65;;
26989;SDS011;14537;47.788;11.858;2023-02-13T02:14:10;26.85;;;9.23;;
26989;SDS011;14537;47.788;11.858;2023-02-13T02:16:36;24.55;;;8.85;;
26989;SDS011;14537;47.788;11.858;2023-02-13T02:19:03;19.70;;;7.90;;
26989;SDS011;14537;47.788;11.858;2023-02-13T02:21:44;25.30;;;9.57;;
26989;SDS011;14537;47.788;11.858;2023-02-13T02:43:13;24.63;;;8.48;;
26989;SDS011;14537;47.788;11.858;2023-02-13T02:51:30;26.90;;;9.35;;
26989;SDS011;14537;47.788;11.858;2023-02-13T02:54:30;19.67;;;8.60;;
26989;SDS011;14537;47.788;11.858;2023-02-13T02:57:32;25.63;;;8.38;;
26989;SDS011;14537;47.788;11.858;2023-02-13T03:00:29;18.77;;;8.52;;
26989;SDS011;14537;47.788;11.858;2023-02-13T03:03:18;24.60;;;9.18;;
26989;SDS011;14537;47.788;11.858;2023-02-13T03:06:08;33.35;;;9.10;;
26989;SDS011;14537;47.788;11.858;2023-02-13T03:08:43;44.20;;;9.52;;
26989;SDS011;14537;47.788;11.858;2023-02-13T03:11:33;29.20;;;10.57;;
26989;SDS011;14537;47.788;11.858;2023-02-13T03:14:19;25.25;;;9.52;;
26989;SDS011;14537;47.788;11.858;2023-02-13T03:16:44;26.02;;;9.38;;
26989;SDS011;14537;47.788;11.858;2023-02-13T03:19:40;28.88;;;9.93;;
26989;SDS011;14537;47.788;11.858;2023-02-13T03:30:56;28.33;;;10.82;;
26989;SDS011;14537;47.788;11.858;2023-02-13T03:33:42;29.92;;;9.50;;
26989;SDS011;14537;47.788;11.858;2023-02-13T03:39:52;21.52;;;8.40;;
26989;SDS011;14537;47.788;11.858;2023-02-13T03:44:59;25.05;;;9.55;;
26989;SDS011;14537;47.788;11.858;2023-02-13T03:47:51;24.17;;;9.75;;
26989;SDS011;14537;47.788;11.858;2023-02-13T03:50:19;31.95;;;11.10;;
26989;SDS011;14537;47.788;11.858;2023-02-13T03:52:51;29.00;;;9.70;;
26989;SDS011;14537;47.788;11.858;2023-02-13T03:55:25;22.27;;;9.88;;
26989;SDS011;14537;47.788;11.858;2023-02-13T03:58:18;21.83;;;9.05;;
26989;SDS011;14537;47.788;11.858;2023-02-13T04:01:07;30.88;;;10.05;;
26989;SDS011;14537;47.788;11.858;2023-02-13T04:03:49;25.33;;;8.88;;
26989;SDS011;14537;47.788;11.858;2023-02-13T04:06:22;22.75;;;9.00;;
26989;SDS011;14537;47.788;11.858;2023-02-13T04:09:16;27.80;;;9.52;;
26989;SDS011;14537;47.788;11.858;2023-02-13T04:11:46;26.35;;;9.63;;
26989;SDS011;14537;47.788;11.858;2023-02-13T04:14:19;21.88;;;8.23;;
26989;SDS011;14537;47.788;11.858;2023-02-13T04:16:52;25.40;;;8.93;;
26989;SDS011;14537;47.788;11.858;2023-02-13T04:19:41;25.67;;;10.25;;
26989;SDS011;14537;47.788;11.858;2023-02-13T04:22:10;26.13;;;10.23;;
26989;SDS011;14537;47.788;11.858;2023-02-13T04:24:36;25.20;;;9.93;;
26989;SDS011;14537;47.788;11.858;2023-02-13T04:27:01;29.25;;;10.30;;
26989;SDS011;14537;47.788;11.858;2023-02-13T04:29:27;27.48;;;10.13;;
26989;SDS011;14537;47.788;11.858;2023-02-13T04:31:53;22.52;;;9.20;;
26989;SDS011;14537;47.788;11.858;2023-02-13T04:34:19;23.00;;;9.40;;
26989;SDS011;14537;47.788;11.858;2023-02-13T04:36:44;23.73;;;8.55;;
26989;SDS011;14537;47.788;11.858;2023-02-13T04:39:10;26.45;;;9.82;;
26989;SDS011;14537;47.788;11.858;2023-02-13T04:41:36;25.20;;;9.73;;
26989;SDS011;14537;47.788;11.858;2023-02-13T04:44:01;22.85;;;8.95;;
26989;SDS011;14537;47.788;11.858;2023-02-13T04:46:27;18.48;;;7.88;;
26989;SDS011;14537;47.788;11.858;2023-02-13T04:48:53;23.83;;;8.57;;
26989;SDS011;14537;47.788;11.858;2023-02-13T04:51:18;21.85;;;8.77;;
26989;SDS011;14537;47.788;11.858;2023-02-13T04:53:44;20.77;;;8.40;;
26989;SDS011;14537;47.788;11.858;2023-02-13T04:56:09;22.20;;;8.52;;
26989;SDS011;14537;47.788;11.858;2023-02-13T04:58:35;19.13;;;8.18;;
26989;SDS011;14537;47.788;11.858;2023-02-13T05:01:01;21.95;;;7.88;;
26989;SDS011;14537;47.788;11.858;2023-02-13T05:03:26;22.02;;;8.95;;
26989;SDS011;14537;47.788;11.858;2023-02-13T05:05:52;21.05;;;8.98;;
26989;SDS011;14537;47.788;11.858;2023-02-13T05:08:18;23.85;;;8.57;;
26989;SDS011;14537;47.788;11.858;2023-02-13T05:10:43;25.08;;;9.15;;
26989;SDS011;14537;47.788;11.858;2023-02-13T05:13:09;21.70;;;8.90;;
26989;SDS011;14537;47.788;11.858;2023-02-13T05:15:35;29.73;;;8.38;;
26989;SDS011;14537;47.788;11.858;2023-02-13T05:18:01;22.85;;;8.75;;
26989;SDS011;14537;47.788;11.858;2023-02-13T05:20:26;17.73;;;7.60;;
26989;SDS011;14537;47.788;11.858;2023-02-13T05:22:52;20.17;;;8.32;;
26989;SDS011;14537;47.788;11.858;2023-02-13T05:25:38;21.80;;;8.18;;
26989;SDS011;14537;47.788;11.858;2023-02-13T05:28:04;14.43;;;6.38;;
26989;SDS011;14537;47.788;11.858;2023-02-13T05:30:53;15.07;;;5.75;;
26989;SDS011;14537;47.788;11.858;2023-02-13T05:33:19;17.90;;;6.50;;
26989;SDS011;14537;47.788;11.858;2023-02-13T05:35:45;15.93;;;5.97;;
26989;SDS011;14537;47.788;11.858;2023-02-13T05:38:10;18.33;;;6.88;;
26989;SDS011;14537;47.788;11.858;2023-02-13T05:40:36;13.27;;;5.97;;
26989;SDS011;14537;47.788;11.858;2023-02-13T05:43:02;15.10;;;6.07;;
26989;SDS011;14537;47.788;11.858;2023-02-13T05:45:27;24.45;;;7.15;;
26989;SDS011;14537;47.788;11.858;2023-02-13T05:47:53;13.25;;;5.70;;
26989;SDS011;14537;47.788;11.858;2023-02-13T05:50:18;14.95;;;6.28;;
26989;SDS011;14537;47.788;11.858;2023-02-13T05:52:44;13.38;;;5.85;;
26989;SDS011;14537;47.788;11.858;2023-02-13T05:55:09;15.05;;;6.95;;
26989;SDS011;14537;47.788;11.858;2023-02-13T05:57:35;14.25;;;5.97;;
26989;SDS011;14537;47.788;11.858;2023-02-13T06:00:01;13.48;;;6.60;;
26989;SDS011;14537;47.788;11.858;2023-02-13T06:02:27;13.27;;;5.63;;
26989;SDS011;14537;47.788;11.858;2023-02-13T06:04:53;15.52;;;5.93;;
26989;SDS011;14537;47.788;11.858;2023-02-13T06:07:18;15.45;;;6.55;;
26989;SDS011;14537;47.788;11.858;2023-02-13T06:09:44;12.48;;;5.82;;
26989;SDS011;14537;47.788;11.858;2023-02-13T06:12:10;11.43;;;5.43;;
26989;SDS011;14537;47.788;11.858;2023-02-13T06:14:35;14.25;;;6.13;;
26989;SDS011;14537;47.788;11.858;2023-02-13T06:17:01;20.08;;;6.88;;
26989;SDS011;14537;47.788;11.858;2023-02-13T06:19:27;18.80;;;6.20;;
26989;SDS011;14537;47.788;11.858;2023-02-13T06:21:52;15.32;;;5.82;;
26989;SDS011;14537;47.788;11.858;2023-02-13T06:24:18;17.75;;;6.88;;
26989;SDS011;14537;47.788;11.858;2023-02-13T06:26:43;16.17;;;7.30;;
26989;SDS011;14537;47.788;11.858;2023-02-13T06:29:09;15.82;;;7.55;;
26989;SDS011;14537;47.788;11.858;2023-02-13T06:31:36;19.08;;;7.55;;
26989;SDS011;14537;47.788;11.858;2023-02-13T06:34:02;18.83;;;6.93;;
26989;SDS011;14537;47.788;11.858;2023-02-13T06:36:28;19.20;;;6.93;;
26989;SDS011;14537;47.788;11.858;2023-02-13T06:38:54;12.82;;;6.13;;
26989;SDS011;14537;47.788;11.858;2023-02-13T06:41:19;13.98;;;5.93;;
26989;SDS011;14537;47.788;11.858;2023-02-13T06:43:45;17.48;;;7.03;;
26989;SDS011;14537;47.788;11.858;2023-02-13T06:46:10;15.63;;;5.68;;
26989;SDS011;14537;47.788;11.858;2023-02-13T06:48:36;12.95;;;5.97;;
26989;SDS011;14537;47.788;11.858;2023-02-13T06:51:02;24.17;;;7.28;;
26989;SDS011;14537;47.788;11.858;2023-02-13T06:53:27;15.18;;;6.05;;
26989;SDS011;14537;47.788;11.858;2023-02-13T06:55:54;14.48;;;6.25;;
26989;SDS011;14537;47.788;11.858;2023-02-13T06:58:21;22.15;;;7.28;;
26989;SDS011;14537;47.788;11.858;2023-02-13T07:00:48;17.10;;;6.60;;
26989;SDS011;14537;47.788;11.858;2023-02-13T07:03:14;15.45;;;5.75;;
26989;SDS011;14537;47.788;11.858;2023-02-13T07:05:40;17.65;;;6.43;;
26989;SDS011;14537;47.788;11.858;2023-02-13T07:08:10;18.02;;;7.22;;
26989;SDS011;14537;47.788;11.858;2023-02-13T07:13:03;17.80;;;6.85;;
26989;SDS011;14537;47.788;11.858;2023-02-13T07:15:29;13.77;;;5.60;;
26989;SDS011;14537;47.788;11.858;2023-02-13T07:17:56;19.35;;;6.88;;
26989;SDS011;14537;47.788;11.858;2023-02-13T07:20:22;14.88;;;6.50;;
26989;SDS011;14537;47.788;11.858;2023-02-13T07:22:49;16.10;;;5.70;;
26989;SDS011;14537;47.788;11.858;2023-02-13T07:25:15;17.00;;;7.07;;
26989;SDS011;14537;47.788;11.858;2023-02-13T07:27:41;14.73;;;6.65;;
26989;SDS011;14537;47.788;11.858;2023-02-13T07:30:07;21.20;;;7.32;;
26989;SDS011;14537;47.788;11.858;2023-02-13T07:32:33;17.70;;;7.00;;
26989;SDS011;14537;47.788;11.858;2023-02-13T07:34:58;19.60;;;7.78;;
26989;SDS011;14537;47.788;11.858;2023-02-13T07:37:25;21.65;;;8.15;;
26989;SDS011;14537;47.788;11.858;2023-02-13T07:39:52;16.27;;;6.65;;
26989;SDS011;14537;47.788;11.858;2023-02-13T07:42:17;18.77;;;7.72;;
26989;SDS011;14537;47.788;11.858;2023-02-13T07:44:43;19.23;;;6.93;;
26989;SDS011;14537;47.788;11.858;2023-02-13T07:47:09;20.13;;;7.45;;
26989;SDS011;14537;47.788;11.858;2023-02-13T07:49:34;17.67;;;6.35;;
26989;SDS011;14537;47.788;11.858;2023-02-13T07:52:01;17.00;;;6.72;;
26989;SDS011;14537;47.788;11.858;2023-02-13T07:54:27;27.92;;;6.47;;
26989;SDS011;14537;47.788;11.858;2023-02-13T07:56:52;13.75;;;6.13;;
26989;SDS011;14537;47.788;11.858;2023-02-13T07:59:18;17.05;;;7.07;;
26989;SDS011;14537;47.788;11.858;2023-02-13T08:01:44;14.48;;;6.63;;
26989;SDS011;14537;47.788;11.858;2023-02-13T08:04:09;23.15;;;6.45;;
26989;SDS011;14537;47.788;11.858;2023-02-13T08:06:37;15.88;;;6.22;;
26989;SDS011;14537;47.788;11.858;2023-02-13T08:09:04;14.18;;;6.32;;
26989;SDS011;14537;47.788;11.858;2023-02-13T08:11:48;15.20;;;6.20;;
26989;SDS011;14537;47.788;11.858;2023-02-13T08:14:23;15.40;;;6.70;;
26989;SDS011;14537;47.788;11.858;2023-02-13T08:16:51;18.35;;;6.68;;
26989;SDS011;14537;47.788;11.858;2023-02-13T08:19:17;27.20;;;6.72;;
26989;SDS011;14537;47.788;11.858;2023-02-13T08:21:43;12.20;;;5.47;;
26989;SDS011;14537;47.788;11.858;2023-02-13T08:24:09;16.38;;;6.07;;
26989;SDS011;14537;47.788;11.858;2023-02-13T08:26:35;25.00;;;5.90;;
26989;SDS011;14537;47.788;11.858;2023-02-13T08:29:01;16.15;;;6.15;;
26989;SDS011;14537;47.788;11.858;2023-02-13T08:31:26;17.40;;;5.93;;
26989;SDS011;14537;47.788;11.858;2023-02-13T08:33:52;16.17;;;6.43;;
26989;SDS011;14537;47.788;11.858;2023-02-13T08:36:17;18.42;;;7.35;;
26989;SDS011;14537;47.788;11.858;2023-02-13T08:38:46;15.57;;;6.47;;
26989;SDS011;14537;47.788;11.858;2023-02-13T08:41:12;17.40;;;6.90;;
26989;SDS011;14537;47.788;11.858;2023-02-13T08:43:38;15.18;;;6.38;;
26989;SDS011;14537;47.788;11.858;2023-02-13T08:46:04;19.23;;;6.55;;
26989;SDS011;14537;47.788;11.858;2023-02-13T08:48:30;18.02;;;6.90;;
26989;SDS011;14537;47.788;11.858;2023-02-13T08:50:55;24.48;;;6.40;;
26989;SDS011;14537;47.788;11.858;2023-02-13T08:53:21;13.15;;;6.45;;
26989;SDS011;14537;47.788;11.858;2023-02-13T08:56:05;15.10;;;6.88;;
26989;SDS011;14537;47.788;11.858;2023-02-13T08:58:31;17.85;;;6.78;;
26989;SDS011;14537;47.788;11.858;2023-02-13T09:00:57;14.35;;;6.55;;
26989;SDS011;14537;47.788;11.858;2023-02-13T09:03:22;18.48;;;6.70;;
26989;SDS011;14537;47.788;11.858;2023-02-13T09:05:48;17.08;;;6.88;;
26989;SDS011;14537;47.788;11.858;2023-02-13T09:08:14;18.50;;;7.07;;
26989;SDS011;14537;47.788;11.858;2023-02-13T09:10:40;23.40;;;8.65;;
26989;SDS011;14537;47.788;11.858;2023-02-13T09:13:07;20.52;;;7.68;;
26989;SDS011;14537;47.788;11.858;2023-02-13T09:15:36;19.10;;;8.15;;
26989;SDS011;14537;47.788;11.858;2023-02-13T09:18:04;18.75;;;7.35;;
26989;SDS011;14537;47.788;11.858;2023-02-13T09:20:30;18.67;;;7.40;;
26989;SDS011;14537;47.788;11.858;2023-02-13T09:22:55;16.27;;;7.35;;
26989;SDS011;14537;47.788;11.858;2023-02-13T09:25:21;25.70;;;8.23;;
26989;SDS011;14537;47.788;11.858;2023-02-13T09:27:47;25.42;;;7.75;;
26989;SDS011;14537;47.788;11.858;2023-02-13T09:30:12;20.40;;;8.60;;
26989;SDS011;14537;47.788;11.858;2023-02-13T09:32:47;19.65;;;7.38;;
26989;SDS011;14537;47.788;11.858;2023-02-13T09:35:14;23.08;;;7.88;;
26989;SDS011;14537;47.788;11.858;2023-02-13T09:37:40;22.60;;;8.25;;
26989;SDS011;14537;47.788;11.858;2023-02-13T09:40:09;17.45;;;7.55;;
26989;SDS011;14537;47.788;11.858;2023-02-13T09:42:43;18.33;;;7.72;;
26989;SDS011;14537;47.788;11.858;2023-02-13T09:45:10;15.05;;;6.53;;
26989;SDS011;14537;47.788;11.858;2023-02-13T09:47:40;16.85;;;7.03;;
26989;SDS011;14537;47.788;11.858;2023-02-13T09:50:12;16.25;;;7.07;;
26989;SDS011;14537;47.788;11.858;2023-02-13T09:52:39;17.70;;;6.70;;
26989;SDS011;14537;47.788;11.858;2023-02-13T09:57:59;14.25;;;5.68;;
26989;SDS011;14537;47.788;11.858;2023-02-13T10:00:51;15.05;;;6.38;;
26989;SDS011;14537;47.788;11.858;2023-02-13T10:03:22;16.40;;;6.18;;
26989;SDS011;14537;47.788;11.858;2023-02-13T10:06:02;14.63;;;6.10;;
26989;SDS011;14537;47.788;11.858;2023-02-13T10:14:26;11.63;;;5.32;;
26989;SDS011;14537;47.788;11.858;2023-02-13T10:17:05;13.30;;;6.32;;
26989;SDS011;14537;47.788;11.858;2023-02-13T10:19:41;16.00;;;6.47;;
26989;SDS011;14537;47.788;11.858;2023-02-13T10:22:22;15.65;;;6.28;;
26989;SDS011;14537;47.788;11.858;2023-02-13T10:27:42;12.68;;;5.88;;
26989;SDS011;14537;47.788;11.858;2023-02-13T10:30:15;16.27;;;5.72;;
26989;SDS011;14537;47.788;11.858;2023-02-13T10:32:59;13.27;;;5.95;;
26989;SDS011;14537;47.788;11.858;2023-02-13T10:35:47;15.83;;;5.53;;
26989;SDS011;14537;47.788;11.858;2023-02-13T10:38:30;16.92;;;6.05;;
26989;SDS011;14537;47.788;11.858;2023-02-13T10:41:02;15.25;;;6.57;;
26989;SDS011;14537;47.788;11.858;2023-02-13T10:43:34;16.58;;;6.38;;
26989;SDS011;14537;47.788;11.858;2023-02-13T10:48:55;14.68;;;6.05;;
26989;SDS011;14537;47.788;11.858;2023-02-13T10:51:59;13.25;;;5.45;;
26989;SDS011;14537;47.788;11.858;2023-02-13T11:01:08;16.83;;;6.68;;
26989;SDS011;14537;47.788;11.858;2023-02-13T11:03:26;15.00;;;6.63;;
26989;SDS011;14537;47.788;11.858;2023-02-13T11:05:53;15.27;;;6.90;;
26989;SDS011;14537;47.788;11.858;2023-02-13T11:10:52;17.00;;;6.57;;
26989;SDS011;14537;47.788;11.858;2023-02-13T11:13:19;17.70;;;6.93;;
26989;SDS011;14537;47.788;11.858;2023-02-13T11:16:05;19.17;;;7.28;;
26989;SDS011;14537;47.788;11.858;2023-02-13T11:18:35;19.38;;;7.80;;
26989;SDS011;14537;47.788;11.858;2023-02-13T11:21:08;19.05;;;7.07;;
26989;SDS011;14537;47.788;11.858;2023-02-13T11:23:53;13.88;;;7.28;;
26989;SDS011;14537;47.788;11.858;2023-02-13T11:26:25;13.30;;;5.72;;
26989;SDS011;14537;47.788;11.858;2023-02-13T11:28:59;16.17;;;7.05;;
26989;SDS011;14537;47.788;11.858;2023-02-13T11:31:38;20.58;;;7.45;;
26989;SDS011;14537;47.788;11.858;2023-02-13T11:34:17;25.92;;;7.97;;
26989;SDS011;14537;47.788;11.858;2023-02-13T11:36:52;18.92;;;7.53;;
26989;SDS011;14537;47.788;11.858;2023-02-13T11:39:39;19.00;;;7.28;;
26989;SDS011;14537;47.788;11.858;2023-02-13T11:42:11;17.48;;;7.53;;
26989;SDS011;14537;47.788;11.858;2023-02-13T11:44:43;18.95;;;7.43;;
26989;SDS011;14537;47.788;11.858;2023-02-13T11:47:14;17.85;;;7.43;;
26989;SDS011;14537;47.788;11.858;2023-02-13T11:49:43;21.00;;;7.88;;
26989;SDS011;14537;47.788;11.858;2023-02-13T11:52:27;15.80;;;7.43;;
26989;SDS011;14537;47.788;11.858;2023-02-13T11:54:56;19.13;;;8.82;;
26989;SDS011;14537;47.788;11.858;2023-02-13T11:57:34;22.27;;;8.73;;
26989;SDS011;14537;47.788;11.858;2023-02-13T12:00:19;17.13;;;7.72;;
26989;SDS011;14537;47.788;11.858;2023-02-13T12:02:49;18.45;;;7.50;;
26989;SDS011;14537;47.788;11.858;2023-02-13T12:05:19;19.05;;;8.10;;
26989;SDS011;14537;47.788;11.858;2023-02-13T12:07:47;17.77;;;7.20;;
26989;SDS011;14537;47.788;11.858;2023-02-13T12:13:08;21.30;;;8.63;;
26989;SDS011;14537;47.788;11.858;2023-02-13T12:15:37;22.65;;;8.77;;
26989;SDS011;14537;47.788;11.858;2023-02-13T12:42:43;21.25;;;8.40;;
26989;SDS011;14537;47.788;11.858;2023-02-13T13:02:07;25.92;;;9.63;;
26989;SDS011;14537;47.788;11.858;2023-02-13T13:04:49;20.90;;;9.15;;
26989;SDS011;14537;47.788;11.858;2023-02-13T13:27:45;18.88;;;8.43;;
26989;SDS011;14537;47.788;11.858;2023-02-13T13:30:17;25.30;;;9.90;;
26989;SDS011;14537;47.788;11.858;2023-02-13T13:32:51;27.38;;;10.40;;
26989;SDS011;14537;47.788;11.858;2023-02-13T13:35:22;21.92;;;9.15;;
26989;SDS011;14537;47.788;11.858;2023-02-13T13:37:50;28.98;;;10.55;;
26989;SDS011;14537;47.788;11.858;2023-02-13T13:43:22;20.95;;;9.07;;
26989;SDS011;14537;47.788;11.858;2023-02-13T13:48:54;21.90;;;9.18;;
26989;SDS011;14537;47.788;11.858;2023-02-13T13:51:29;21.38;;;9.27;;
26989;SDS011;14537;47.788;11.858;2023-02-13T13:59:18;24.08;;;10.32;;
26989;SDS011;14537;47.788;11.858;2023-02-13T14:13:32;25.65;;;10.88;;
26989;SDS011;14537;47.788;11.858;2023-02-13T14:16:13;27.10;;;11.18;;
26989;SDS011;14537;47.788;11.858;2023-02-13T14:19:04;25.20;;;11.40;;
26989;SDS011;14537;47.788;11.858;2023-02-13T14:21:31;26.60;;;11.23;;
26989;SDS011;14537;47.788;11.858;2023-02-13T14:23:57;28.70;;;11.05;;
26989;SDS011;14537;47.788;11.858;2023-02-13T14:26:34;28.23;;;10.43;;
26989;SDS011;14537;47.788;11.858;2023-02-13T14:29:47;27.42;;;10.68;;
26989;SDS011;14537;47.788;11.858;2023-02-13T14:32:06;26.67;;;11.02;;
26989;SDS011;14537;47.788;11.858;2023-02-13T14:34:40;24.27;;;10.85;;
26989;SDS011;14537;47.788;11.858;2023-02-13T14:39:41;24.45;;;10.55;;
26989;SDS011;14537;47.788;11.858;2023-02-13T14:42:24;24.73;;;10.15;;
26989;SDS011;14537;47.788;11.858;2023-02-13T14:44:53;25.58;;;10.68;;
26989;SDS011;14537;47.788;11.858;2023-02-13T14:50:05;25.35;;;10.40;;
26989;SDS011;14537;47.788;11.858;2023-02-13T14:52:33;23.45;;;10.52;;
26989;SDS011;14537;47.788;11.858;2023-02-13T14:55:02;25.17;;;9.15;;
26989;SDS011;14537;47.788;11.858;2023-02-13T14:57:51;24.60;;;10.20;;
26989;SDS011;14537;47.788;11.858;2023-02-13T15:00:26;24.65;;;9.57;;
26989;SDS011;14537;47.788;11.858;2023-02-13T15:03:04;24.08;;;9.52;;
26989;SDS011;14537;47.788;11.858;2023-02-13T15:05:56;28.40;;;9.95;;
26989;SDS011;14537;47.788;11.858;2023-02-13T15:08:27;22.88;;;9.27;;
26989;SDS011;14537;47.788;11.858;2023-02-13T15:10:58;18.63;;;8.50;;
26989;SDS011;14537;47.788;11.858;2023-02-13T15:13:34;25.35;;;10.52;;
26989;SDS011;14537;47.788;11.858;2023-02-13T15:16:02;22.77;;;9.55;;
26989;SDS011;14537;47.788;11.858;2023-02-13T15:18:43;22.70;;;9.52;;
26989;SDS011;14537;47.788;11.858;2023-02-13T15:21:19;20.50;;;9.27;;
26989;SDS011;14537;47.788;11.858;2023-02-13T15:23:56;20.63;;;9.27;;
26989;SDS011;14537;47.788;11.858;2023-02-13T15:26:23;23.98;;;10.60;;
26989;SDS011;14537;47.788;11.858;2023-02-13T15:28:59;21.15;;;9.77;;
26989;SDS011;14537;47.788;11.858;2023-02-13T15:31:44;20.08;;;7.70;;
26989;SDS011;14537;47.788;11.858;2023-02-13T15:34:18;19.88;;;9.48;;
26989;SDS011;14537;47.788;11.858;2023-02-13T15:36:46;22.70;;;9.95;;
26989;SDS011;14537;47.788;11.858;2023-02-13T15:39:17;20.45;;;9.70;;
26989;SDS011;14537;47.788;11.858;2023-02-13T15:41:45;23.73;;;9.90;;
26989;SDS011;14537;47.788;11.858;2023-02-13T15:47:15;22.35;;;8.60;;
26989;SDS011;14537;47.788;11.858;2023-02-13T15:49:52;25.13;;;9.95;;
26989;SDS011;14537;47.788;11.858;2023-02-13T15:54:57;20.23;;;9.32;;
26989;SDS011;14537;47.788;11.858;2023-02-13T15:57:23;22.95;;;9.50;;
26989;SDS011;14537;47.788;11.858;2023-02-13T15:59:50;20.08;;;8.40;;
26989;SDS011;14537;47.788;11.858;2023-02-13T16:02:25;23.00;;;9.25;;
26989;SDS011;14537;47.788;11.858;2023-02-13T16:04:57;20.90;;;8.88;;
26989;SDS011;14537;47.788;11.858;2023-02-13T16:07:26;21.48;;;8.88;;
26989;SDS011;14537;47.788;11.858;2023-02-13T16:09:51;21.42;;;9.40;;
26989;SDS011;14537;47.788;11.858;2023-02-13T16:12:50;26.45;;;9.55;;
26989;SDS011;14537;47.788;11.858;2023-02-13T16:15:17;17.67;;;8.02;;
26989;SDS011;14537;47.788;11.858;2023-02-13T16:17:45;19.58;;;8.43;;
26989;SDS011;14537;47.788;11.858;2023-02-13T16:22:39;25.75;;;10.45;;
26989;SDS011;14537;47.788;11.858;2023-02-13T16:27:48;22.17;;;9.68;;
26989;SDS011;14537;47.788;11.858;2023-02-13T16:30:22;27.00;;;10.18;;
26989;SDS011;14537;47.788;11.858;2023-02-13T16:32:51;27.05;;;10.95;;
26989;SDS011;14537;47.788;11.858;2023-02-13T16:35:32;27.35;;;11.27;;
26989;SDS011;14537;47.788;11.858;2023-02-13T16:38:02;22.23;;;10.05;;
26989;SDS011;14537;47.788;11.858;2023-02-13T16:46:11;27.80;;;9.85;;
26989;SDS011;14537;47.788;11.858;2023-02-13T16:59:37;28.33;;;11.00;;
26989;SDS011;14537;47.788;11.858;2023-02-13T17:04:39;24.73;;;10.60;;
26989;SDS011;14537;47.788;11.858;2023-02-13T17:07:10;26.17;;;11.63;;
26989;SDS011;14537;47.788;11.858;2023-02-13T17:09:38;36.03;;;13.10;;
26989;SDS011;14537;47.788;11.858;2023-02-13T17:12:08;32.25;;;12.77;;
26989;SDS011;14537;47.788;11.858;2023-02-13T17:14:37;34.67;;;12.70;;
26989;SDS011;14537;47.788;11.858;2023-02-13T17:17:07;30.10;;;13.10;;
26989;SDS011;14537;47.788;11.858;2023-02-13T17:19:37;26.20;;;11.02;;
26989;SDS011;14537;47.788;11.858;2023-02-13T17:22:03;22.92;;;10.52;;
26989;SDS011;14537;47.788;11.858;2023-02-13T17:24:29;28.15;;;11.25;;
26989;SDS011;14537;47.788;11.858;2023-02-13T17:26:55;32.20;;;12.50;;
26989;SDS011;14537;47.788;11.858;2023-02-13T17:29:20;31.65;;;12.30;;
26989;SDS011;14537;47.788;11.858;2023-02-13T17:31:46;38.17;;;13.30;;
26989;SDS011;14537;47.788;11.858;2023-02-13T17:34:21;31.20;;;11.07;;
26989;SDS011;14537;47.788;11.858;2023-02-13T17:36:46;30.33;;;11.48;;
26989;SDS011;14537;47.788;11.858;2023-02-13T17:39:12;33.97;;;12.80;;
26989;SDS011;14537;47.788;11.858;2023-02-13T17:41:38;28.83;;;11.82;;
26989;SDS011;14537;47.788;11.858;2023-02-13T17:44:06;28.80;;;11.73;;
26989;SDS011;14537;47.788;11.858;2023-02-13T17:46:36;31.33;;;11.88;;
26989;SDS011;14537;47.788;11.858;2023-02-13T17:49:01;26.83;;;10.63;;